sensor_id;sensor_type;location;lat;lon;timestamp;P1;durP1;ratioP1;P2;durP2;ratioP2
23088;SDS011;11713;48.506;8.966;2022-08-30T00:00:15;8.45;;;7.70;;
23088;SDS011;11713;48.506;8.966;2022-08-30T00:03:15;7.95;;;7.15;;
23088;SDS011;11713;48.506;8.966;2022-08-30T00:05:41;7.68;;;6.90;;
23088;SDS011;11713;48.506;8.966;2022-08-30T00:08:08;8.32;;;7.45;;
23088;SDS011;11713;48.506;8.966;2022-08-30T00:10:34;8.00;;;7.18;;
23088;SDS011;11713;48.506;8.966;2022-08-30T00:13:01;8.77;;;7.00;;
23088;SDS011;11713;48.506;8.966;2022-08-30T00:15:27;8.63;;;6.55;;
23088;SDS011;11713;48.506;8.966;2022-08-30T00:17:54;7.55;;;6.75;;
23088;SDS011;11713;48.506;8.966;2022-08-30T00:20:22;8.18;;;7.38;;
23088;SDS011;11713;48.506;8.966;2022-08-30T00:22:52;7.85;;;7.10;;
23088;SDS011;11713;48.506;8.966;2022-08-30T00:25:18;8.02;;;7.28;;
23088;SDS011;11713;48.506;8.966;2022-08-30T00:27:44;8.40;;;7.32;;
23088;SDS011;11713;48.506;8.966;2022-08-30T00:30:11;8.43;;;7.68;;
23088;SDS011;11713;48.506;8.966;2022-08-30T00:32:39;9.10;;;7.30;;
23088;SDS011;11713;48.506;8.966;2022-08-30T00:35:05;7.93;;;7.10;;
23088;SDS011;11713;48.506;8.966;2022-08-30T00:37:33;8.20;;;7.40;;
23088;SDS011;11713;48.506;8.966;2022-08-30T00:39:59;8.18;;;7.22;;
23088;SDS011;11713;48.506;8.966;2022-08-30T00:42:24;7.95;;;7.25;;
23088;SDS011;11713;48.506;8.966;2022-08-30T00:44:51;8.30;;;7.47;;
23088;SDS011;11713;48.506;8.966;2022-08-30T00:47:17;7.78;;;7.07;;
23088;SDS011;11713;48.506;8.966;2022-08-30T00:49:47;11.30;;;7.90;;
23088;SDS011;11713;48.506;8.966;2022-08-30T00:52:19;8.13;;;7.32;;
23088;SDS011;11713;48.506;8.966;2022-08-30T00:54:47;9.55;;;7.93;;
23088;SDS011;11713;48.506;8.966;2022-08-30T00:57:16;10.35;;;8.00;;
23088;SDS011;11713;48.506;8.966;2022-08-30T00:59:43;9.48;;;8.02;;
23088;SDS011;11713;48.506;8.966;2022-08-30T01:02:13;8.80;;;7.20;;
23088;SDS011;11713;48.506;8.966;2022-08-30T01:04:42;8.48;;;7.22;;
23088;SDS011;11713;48.506;8.966;2022-08-30T01:07:09;8.52;;;7.65;;
23088;SDS011;11713;48.506;8.966;2022-08-30T01:09:35;8.88;;;7.30;;
23088;SDS011;11713;48.506;8.966;2022-08-30T01:12:02;8.25;;;7.47;;
23088;SDS011;11713;48.506;8.966;2022-08-30T01:14:30;8.15;;;7.45;;
23088;SDS011;11713;48.506;8.966;2022-08-30T01:16:57;8.10;;;7.35;;
23088;SDS011;11713;48.506;8.966;2022-08-30T01:19:29;8.70;;;7.78;;
23088;SDS011;11713;48.506;8.966;2022-08-30T01:22:07;9.63;;;8.00;;
23088;SDS011;11713;48.506;8.966;2022-08-30T01:24:44;8.82;;;7.97;;
23088;SDS011;11713;48.506;8.966;2022-08-30T01:27:13;8.40;;;7.60;;
23088;SDS011;11713;48.506;8.966;2022-08-30T01:29:40;8.80;;;7.50;;
23088;SDS011;11713;48.506;8.966;2022-08-30T01:32:16;8.77;;;7.23;;
23088;SDS011;11713;48.506;8.966;2022-08-30T01:38:03;8.87;;;7.97;;
23088;SDS011;11713;48.506;8.966;2022-08-30T01:40:29;8.32;;;7.45;;
23088;SDS011;11713;48.506;8.966;2022-08-30T01:42:55;9.98;;;8.98;;
23088;SDS011;11713;48.506;8.966;2022-08-30T01:45:21;9.40;;;8.50;;
23088;SDS011;11713;48.506;8.966;2022-08-30T01:47:47;9.43;;;8.00;;
23088;SDS011;11713;48.506;8.966;2022-08-30T01:50:13;9.30;;;8.40;;
23088;SDS011;11713;48.506;8.966;2022-08-30T01:52:39;8.50;;;7.60;;
23088;SDS011;11713;48.506;8.966;2022-08-30T01:55:06;9.43;;;8.07;;
23088;SDS011;11713;48.506;8.966;2022-08-30T01:57:33;8.93;;;8.03;;
23088;SDS011;11713;48.506;8.966;2022-08-30T01:59:59;8.45;;;7.68;;
23088;SDS011;11713;48.506;8.966;2022-08-30T02:02:25;10.93;;;8.00;;
23088;SDS011;11713;48.506;8.966;2022-08-30T02:04:54;8.30;;;7.50;;
23088;SDS011;11713;48.506;8.966;2022-08-30T02:07:21;8.00;;;7.20;;
23088;SDS011;11713;48.506;8.966;2022-08-30T02:09:48;8.13;;;7.33;;
23088;SDS011;11713;48.506;8.966;2022-08-30T02:12:15;9.70;;;7.83;;
23088;SDS011;11713;48.506;8.966;2022-08-30T02:14:41;8.87;;;7.97;;
23088;SDS011;11713;48.506;8.966;2022-08-30T02:17:09;9.30;;;7.70;;
23088;SDS011;11713;48.506;8.966;2022-08-30T02:19:37;10.23;;;7.93;;
23088;SDS011;11713;48.506;8.966;2022-08-30T02:22:03;8.07;;;7.27;;
23088;SDS011;11713;48.506;8.966;2022-08-30T02:24:30;7.60;;;6.90;;
23088;SDS011;11713;48.506;8.966;2022-08-30T02:26:56;8.53;;;7.60;;
23088;SDS011;11713;48.506;8.966;2022-08-30T02:29:22;9.27;;;8.20;;
23088;SDS011;11713;48.506;8.966;2022-08-30T02:31:49;8.33;;;7.40;;
23088;SDS011;11713;48.506;8.966;2022-08-30T02:34:15;9.37;;;7.97;;
23088;SDS011;11713;48.506;8.966;2022-08-30T02:36:42;8.90;;;8.00;;
23088;SDS011;11713;48.506;8.966;2022-08-30T02:39:09;9.03;;;8.10;;
23088;SDS011;11713;48.506;8.966;2022-08-30T02:41:37;8.73;;;7.90;;
23088;SDS011;11713;48.506;8.966;2022-08-30T02:44:03;10.80;;;8.80;;
23088;SDS011;11713;48.506;8.966;2022-08-30T02:46:31;9.73;;;8.73;;
23088;SDS011;11713;48.506;8.966;2022-08-30T02:48:57;8.50;;;7.70;;
23088;SDS011;11713;48.506;8.966;2022-08-30T02:51:23;9.53;;;8.03;;
23088;SDS011;11713;48.506;8.966;2022-08-30T02:53:50;7.97;;;7.27;;
23088;SDS011;11713;48.506;8.966;2022-08-30T02:56:16;9.47;;;7.57;;
23088;SDS011;11713;48.506;8.966;2022-08-30T02:58:42;8.40;;;7.60;;
23088;SDS011;11713;48.506;8.966;2022-08-30T03:01:10;8.60;;;7.50;;
23088;SDS011;11713;48.506;8.966;2022-08-30T03:03:38;8.43;;;7.60;;
23088;SDS011;11713;48.506;8.966;2022-08-30T03:06:04;8.27;;;7.47;;
23088;SDS011;11713;48.506;8.966;2022-08-30T03:08:31;8.83;;;7.93;;
23088;SDS011;11713;48.506;8.966;2022-08-30T03:10:58;8.77;;;7.60;;
23088;SDS011;11713;48.506;8.966;2022-08-30T03:13:24;8.27;;;7.40;;
23088;SDS011;11713;48.506;8.966;2022-08-30T03:15:50;9.67;;;7.50;;
23088;SDS011;11713;48.506;8.966;2022-08-30T03:18:17;9.80;;;8.50;;
23088;SDS011;11713;48.506;8.966;2022-08-30T03:20:44;10.43;;;8.23;;
23088;SDS011;11713;48.506;8.966;2022-08-30T03:23:10;8.90;;;7.90;;
23088;SDS011;11713;48.506;8.966;2022-08-30T03:25:37;11.07;;;9.07;;
23088;SDS011;11713;48.506;8.966;2022-08-30T03:28:04;9.93;;;8.10;;
23088;SDS011;11713;48.506;8.966;2022-08-30T03:30:31;8.37;;;7.53;;
23088;SDS011;11713;48.506;8.966;2022-08-30T03:32:58;7.90;;;7.13;;
23088;SDS011;11713;48.506;8.966;2022-08-30T03:35:24;8.77;;;7.87;;
23088;SDS011;11713;48.506;8.966;2022-08-30T03:37:50;8.73;;;7.80;;
23088;SDS011;11713;48.506;8.966;2022-08-30T03:40:17;9.00;;;7.67;;
23088;SDS011;11713;48.506;8.966;2022-08-30T03:42:44;8.73;;;7.93;;
23088;SDS011;11713;48.506;8.966;2022-08-30T03:45:11;11.53;;;8.70;;
23088;SDS011;11713;48.506;8.966;2022-08-30T03:47:37;12.73;;;8.13;;
23088;SDS011;11713;48.506;8.966;2022-08-30T03:50:04;11.07;;;8.10;;
23088;SDS011;11713;48.506;8.966;2022-08-30T03:52:30;11.13;;;9.07;;
23088;SDS011;11713;48.506;8.966;2022-08-30T03:54:56;10.90;;;8.10;;
23088;SDS011;11713;48.506;8.966;2022-08-30T03:57:24;8.90;;;8.00;;
23088;SDS011;11713;48.506;8.966;2022-08-30T03:59:50;9.10;;;8.20;;
23088;SDS011;11713;48.506;8.966;2022-08-30T04:02:16;9.37;;;8.43;;
23088;SDS011;11713;48.506;8.966;2022-08-30T04:04:42;9.70;;;8.63;;
23088;SDS011;11713;48.506;8.966;2022-08-30T04:07:08;11.50;;;8.80;;
23088;SDS011;11713;48.506;8.966;2022-08-30T04:09:34;10.43;;;9.43;;
23088;SDS011;11713;48.506;8.966;2022-08-30T04:12:00;9.43;;;8.43;;
23088;SDS011;11713;48.506;8.966;2022-08-30T04:14:26;10.20;;;9.00;;
23088;SDS011;11713;48.506;8.966;2022-08-30T04:16:52;10.67;;;9.57;;
23088;SDS011;11713;48.506;8.966;2022-08-30T04:19:18;11.13;;;9.07;;
23088;SDS011;11713;48.506;8.966;2022-08-30T04:21:44;11.17;;;9.70;;
23088;SDS011;11713;48.506;8.966;2022-08-30T04:24:10;10.07;;;9.10;;
23088;SDS011;11713;48.506;8.966;2022-08-30T04:26:36;12.33;;;10.27;;
23088;SDS011;11713;48.506;8.966;2022-08-30T04:29:02;11.90;;;9.70;;
23088;SDS011;11713;48.506;8.966;2022-08-30T04:31:29;11.00;;;9.93;;
23088;SDS011;11713;48.506;8.966;2022-08-30T04:33:55;10.63;;;9.50;;
23088;SDS011;11713;48.506;8.966;2022-08-30T04:36:21;10.10;;;8.90;;
23088;SDS011;11713;48.506;8.966;2022-08-30T04:38:47;10.73;;;9.10;;
23088;SDS011;11713;48.506;8.966;2022-08-30T04:41:14;11.17;;;8.87;;
23088;SDS011;11713;48.506;8.966;2022-08-30T04:43:43;9.53;;;8.60;;
23088;SDS011;11713;48.506;8.966;2022-08-30T04:46:10;9.50;;;8.53;;
23088;SDS011;11713;48.506;8.966;2022-08-30T04:48:38;10.27;;;8.20;;
23088;SDS011;11713;48.506;8.966;2022-08-30T04:51:05;9.40;;;8.47;;
23088;SDS011;11713;48.506;8.966;2022-08-30T04:53:32;9.80;;;8.80;;
23088;SDS011;11713;48.506;8.966;2022-08-30T04:55:59;10.13;;;9.03;;
23088;SDS011;11713;48.506;8.966;2022-08-30T04:58:25;10.20;;;8.80;;
23088;SDS011;11713;48.506;8.966;2022-08-30T05:00:51;10.73;;;8.50;;
23088;SDS011;11713;48.506;8.966;2022-08-30T05:03:17;10.00;;;8.47;;
23088;SDS011;11713;48.506;8.966;2022-08-30T05:05:49;10.43;;;8.67;;
23088;SDS011;11713;48.506;8.966;2022-08-30T05:08:16;9.23;;;8.33;;
23088;SDS011;11713;48.506;8.966;2022-08-30T05:10:46;10.43;;;9.27;;
23088;SDS011;11713;48.506;8.966;2022-08-30T05:13:14;11.50;;;8.53;;
23088;SDS011;11713;48.506;8.966;2022-08-30T05:15:41;9.63;;;8.63;;
23088;SDS011;11713;48.506;8.966;2022-08-30T05:18:08;9.63;;;8.50;;
23088;SDS011;11713;48.506;8.966;2022-08-30T05:20:35;11.17;;;8.77;;
23088;SDS011;11713;48.506;8.966;2022-08-30T05:23:02;9.43;;;8.17;;
23088;SDS011;11713;48.506;8.966;2022-08-30T05:25:34;9.50;;;8.17;;
23088;SDS011;11713;48.506;8.966;2022-08-30T05:28:03;9.50;;;8.23;;
23088;SDS011;11713;48.506;8.966;2022-08-30T05:30:30;11.40;;;8.87;;
23088;SDS011;11713;48.506;8.966;2022-08-30T05:32:58;10.00;;;8.63;;
23088;SDS011;11713;48.506;8.966;2022-08-30T05:35:24;10.17;;;9.03;;
23088;SDS011;11713;48.506;8.966;2022-08-30T05:37:50;10.23;;;8.90;;
23088;SDS011;11713;48.506;8.966;2022-08-30T05:40:17;10.53;;;9.43;;
23088;SDS011;11713;48.506;8.966;2022-08-30T05:42:43;10.10;;;9.17;;
23088;SDS011;11713;48.506;8.966;2022-08-30T05:45:10;10.10;;;9.00;;
23088;SDS011;11713;48.506;8.966;2022-08-30T05:47:37;11.20;;;9.60;;
23088;SDS011;11713;48.506;8.966;2022-08-30T05:50:04;10.00;;;9.00;;
23088;SDS011;11713;48.506;8.966;2022-08-30T05:52:37;9.67;;;8.77;;
23088;SDS011;11713;48.506;8.966;2022-08-30T05:55:04;10.47;;;9.23;;
23088;SDS011;11713;48.506;8.966;2022-08-30T05:57:32;9.40;;;8.50;;
23088;SDS011;11713;48.506;8.966;2022-08-30T06:00:07;10.63;;;8.77;;
23088;SDS011;11713;48.506;8.966;2022-08-30T06:02:39;11.47;;;9.00;;
23088;SDS011;11713;48.506;8.966;2022-08-30T06:05:06;9.87;;;8.87;;
23088;SDS011;11713;48.506;8.966;2022-08-30T06:07:33;11.07;;;9.20;;
23088;SDS011;11713;48.506;8.966;2022-08-30T06:09:59;10.07;;;9.10;;
23088;SDS011;11713;48.506;8.966;2022-08-30T06:12:25;10.70;;;9.40;;
23088;SDS011;11713;48.506;8.966;2022-08-30T06:14:51;10.10;;;9.10;;
23088;SDS011;11713;48.506;8.966;2022-08-30T06:17:17;12.53;;;9.50;;
23088;SDS011;11713;48.506;8.966;2022-08-30T06:19:43;11.50;;;10.00;;
23088;SDS011;11713;48.506;8.966;2022-08-30T06:22:09;13.07;;;8.90;;
23088;SDS011;11713;48.506;8.966;2022-08-30T06:24:35;11.73;;;9.30;;
23088;SDS011;11713;48.506;8.966;2022-08-30T06:27:00;10.30;;;9.30;;
23088;SDS011;11713;48.506;8.966;2022-08-30T06:29:27;10.90;;;9.67;;
23088;SDS011;11713;48.506;8.966;2022-08-30T06:31:53;11.43;;;9.70;;
23088;SDS011;11713;48.506;8.966;2022-08-30T06:34:21;10.30;;;9.30;;
23088;SDS011;11713;48.506;8.966;2022-08-30T06:36:47;12.93;;;9.90;;
23088;SDS011;11713;48.506;8.966;2022-08-30T06:39:13;10.65;;;9.55;;
23088;SDS011;11713;48.506;8.966;2022-08-30T06:41:40;11.50;;;10.07;;
23088;SDS011;11713;48.506;8.966;2022-08-30T06:44:20;11.50;;;9.60;;
23088;SDS011;11713;48.506;8.966;2022-08-30T06:46:46;10.70;;;9.48;;
23088;SDS011;11713;48.506;8.966;2022-08-30T06:49:12;10.50;;;9.40;;
23088;SDS011;11713;48.506;8.966;2022-08-30T06:51:38;10.77;;;9.63;;
23088;SDS011;11713;48.506;8.966;2022-08-30T06:54:04;12.57;;;10.13;;
23088;SDS011;11713;48.506;8.966;2022-08-30T06:56:31;10.35;;;9.25;;
23088;SDS011;11713;48.506;8.966;2022-08-30T06:58:57;13.90;;;9.95;;
23088;SDS011;11713;48.506;8.966;2022-08-30T07:01:24;11.07;;;9.98;;
23088;SDS011;11713;48.506;8.966;2022-08-30T07:03:52;11.07;;;9.98;;
23088;SDS011;11713;48.506;8.966;2022-08-30T07:06:19;11.23;;;10.10;;
23088;SDS011;11713;48.506;8.966;2022-08-30T07:08:46;11.88;;;10.25;;
23088;SDS011;11713;48.506;8.966;2022-08-30T07:11:14;12.50;;;9.23;;
23088;SDS011;11713;48.506;8.966;2022-08-30T07:13:49;11.77;;;9.98;;
23088;SDS011;11713;48.506;8.966;2022-08-30T07:16:14;12.35;;;10.48;;
23088;SDS011;11713;48.506;8.966;2022-08-30T07:18:40;11.07;;;9.25;;
23088;SDS011;11713;48.506;8.966;2022-08-30T07:21:16;10.32;;;9.25;;
23088;SDS011;11713;48.506;8.966;2022-08-30T07:23:44;11.52;;;9.43;;
23088;SDS011;11713;48.506;8.966;2022-08-30T07:26:13;12.50;;;10.05;;
23088;SDS011;11713;48.506;8.966;2022-08-30T07:28:43;10.60;;;9.60;;
23088;SDS011;11713;48.506;8.966;2022-08-30T07:31:10;12.45;;;9.93;;
23088;SDS011;11713;48.506;8.966;2022-08-30T07:33:40;11.43;;;9.18;;
23088;SDS011;11713;48.506;8.966;2022-08-30T07:36:06;11.77;;;9.75;;
23088;SDS011;11713;48.506;8.966;2022-08-30T07:38:33;11.32;;;9.23;;
23088;SDS011;11713;48.506;8.966;2022-08-30T07:40:59;10.75;;;9.25;;
23088;SDS011;11713;48.506;8.966;2022-08-30T07:43:28;10.88;;;9.75;;
23088;SDS011;11713;48.506;8.966;2022-08-30T07:45:59;11.90;;;9.50;;
23088;SDS011;11713;48.506;8.966;2022-08-30T07:48:26;10.38;;;9.27;;
23088;SDS011;11713;48.506;8.966;2022-08-30T07:50:52;10.98;;;9.88;;
23088;SDS011;11713;48.506;8.966;2022-08-30T07:53:17;10.35;;;9.25;;
23088;SDS011;11713;48.506;8.966;2022-08-30T07:55:43;12.43;;;10.10;;
23088;SDS011;11713;48.506;8.966;2022-08-30T07:58:09;11.90;;;10.48;;
23088;SDS011;11713;48.506;8.966;2022-08-30T08:00:35;11.00;;;9.90;;
23088;SDS011;11713;48.506;8.966;2022-08-30T08:03:05;12.63;;;10.90;;
23088;SDS011;11713;48.506;8.966;2022-08-30T08:05:40;10.57;;;9.48;;
23088;SDS011;11713;48.506;8.966;2022-08-30T08:08:08;11.48;;;8.52;;
23088;SDS011;11713;48.506;8.966;2022-08-30T08:10:38;11.30;;;9.43;;
23088;SDS011;11713;48.506;8.966;2022-08-30T08:13:05;8.85;;;7.95;;
23088;SDS011;11713;48.506;8.966;2022-08-30T08:15:31;10.00;;;9.00;;
23088;SDS011;11713;48.506;8.966;2022-08-30T08:17:59;9.55;;;8.40;;
23088;SDS011;11713;48.506;8.966;2022-08-30T08:20:25;8.48;;;7.75;;
23088;SDS011;11713;48.506;8.966;2022-08-30T08:22:51;10.25;;;9.18;;
23088;SDS011;11713;48.506;8.966;2022-08-30T08:25:18;8.90;;;8.05;;
23088;SDS011;11713;48.506;8.966;2022-08-30T08:27:47;8.15;;;7.35;;
23088;SDS011;11713;48.506;8.966;2022-08-30T08:30:15;7.38;;;6.68;;
23088;SDS011;11713;48.506;8.966;2022-08-30T08:32:42;8.27;;;7.47;;
23088;SDS011;11713;48.506;8.966;2022-08-30T08:35:09;8.63;;;7.82;;
23088;SDS011;11713;48.506;8.966;2022-08-30T08:37:36;8.85;;;7.75;;
23088;SDS011;11713;48.506;8.966;2022-08-30T08:40:03;7.65;;;6.97;;
23088;SDS011;11713;48.506;8.966;2022-08-30T08:45:16;8.52;;;7.72;;
23088;SDS011;11713;48.506;8.966;2022-08-30T08:50:27;9.40;;;7.95;;
23088;SDS011;11713;48.506;8.966;2022-08-30T08:53:08;9.25;;;8.32;;
23088;SDS011;11713;48.506;8.966;2022-08-30T08:55:59;8.75;;;7.72;;
23088;SDS011;11713;48.506;8.966;2022-08-30T08:58:29;10.70;;;9.65;;
23088;SDS011;11713;48.506;8.966;2022-08-30T09:00:59;10.13;;;9.05;;
23088;SDS011;11713;48.506;8.966;2022-08-30T09:03:26;9.50;;;8.20;;
23088;SDS011;11713;48.506;8.966;2022-08-30T09:05:53;9.57;;;8.63;;
23088;SDS011;11713;48.506;8.966;2022-08-30T09:08:21;11.35;;;9.02;;
23088;SDS011;11713;48.506;8.966;2022-08-30T09:11:09;8.82;;;7.93;;
23088;SDS011;11713;48.506;8.966;2022-08-30T09:13:41;8.90;;;7.68;;
23088;SDS011;11713;48.506;8.966;2022-08-30T09:16:07;9.23;;;7.63;;
23088;SDS011;11713;48.506;8.966;2022-08-30T09:18:44;8.13;;;7.28;;
23088;SDS011;11713;48.506;8.966;2022-08-30T09:21:12;8.50;;;7.78;;
23088;SDS011;11713;48.506;8.966;2022-08-30T09:23:48;7.85;;;7.05;;
23088;SDS011;11713;48.506;8.966;2022-08-30T09:26:32;7.55;;;6.85;;
23088;SDS011;11713;48.506;8.966;2022-08-30T09:29:01;7.82;;;6.93;;
23088;SDS011;11713;48.506;8.966;2022-08-30T09:31:51;8.88;;;6.72;;
23088;SDS011;11713;48.506;8.966;2022-08-30T09:34:19;7.97;;;6.90;;
23088;SDS011;11713;48.506;8.966;2022-08-30T09:36:50;7.82;;;6.45;;
23088;SDS011;11713;48.506;8.966;2022-08-30T09:39:28;7.43;;;6.72;;
23088;SDS011;11713;48.506;8.966;2022-08-30T09:44:50;6.40;;;5.80;;
23088;SDS011;11713;48.506;8.966;2022-08-30T09:47:20;6.78;;;5.90;;
23088;SDS011;11713;48.506;8.966;2022-08-30T09:50:01;7.47;;;5.93;;
23088;SDS011;11713;48.506;8.966;2022-08-30T09:53:32;6.60;;;6.00;;
23088;SDS011;11713;48.506;8.966;2022-08-30T09:55:54;6.25;;;5.65;;
23088;SDS011;11713;48.506;8.966;2022-08-30T09:58:31;8.10;;;5.53;;
23088;SDS011;11713;48.506;8.966;2022-08-30T10:04:24;6.78;;;6.13;;
23088;SDS011;11713;48.506;8.966;2022-08-30T10:07:20;7.43;;;5.25;;
23088;SDS011;11713;48.506;8.966;2022-08-30T10:09:57;5.53;;;5.03;;
23088;SDS011;11713;48.506;8.966;2022-08-30T10:12:31;8.75;;;4.78;;
23088;SDS011;11713;48.506;8.966;2022-08-30T10:15:10;5.68;;;5.18;;
23088;SDS011;11713;48.506;8.966;2022-08-30T10:23:39;5.70;;;5.15;;
23088;SDS011;11713;48.506;8.966;2022-08-30T10:26:35;8.02;;;5.38;;
23088;SDS011;11713;48.506;8.966;2022-08-30T10:29:30;5.60;;;5.10;;
23088;SDS011;11713;48.506;8.966;2022-08-30T10:34:54;6.25;;;5.18;;
23088;SDS011;11713;48.506;8.966;2022-08-30T10:37:26;5.13;;;4.72;;
23088;SDS011;11713;48.506;8.966;2022-08-30T10:39:56;5.80;;;4.90;;
23088;SDS011;11713;48.506;8.966;2022-08-30T10:42:46;5.65;;;5.15;;
23088;SDS011;11713;48.506;8.966;2022-08-30T10:45:15;5.20;;;4.80;;
23088;SDS011;11713;48.506;8.966;2022-08-30T10:47:48;5.05;;;4.43;;
23088;SDS011;11713;48.506;8.966;2022-08-30T10:50:40;4.88;;;4.47;;
23088;SDS011;11713;48.506;8.966;2022-08-30T10:53:16;5.68;;;5.18;;
23088;SDS011;11713;48.506;8.966;2022-08-30T10:58:17;6.38;;;4.78;;
23088;SDS011;11713;48.506;8.966;2022-08-30T11:11:17;6.97;;;4.82;;
23088;SDS011;11713;48.506;8.966;2022-08-30T11:13:51;5.35;;;4.95;;
23088;SDS011;11713;48.506;8.966;2022-08-30T11:16:18;4.70;;;4.28;;
23088;SDS011;11713;48.506;8.966;2022-08-30T11:18:56;5.13;;;4.63;;
23088;SDS011;11713;48.506;8.966;2022-08-30T11:21:24;5.18;;;4.70;;
23088;SDS011;11713;48.506;8.966;2022-08-30T11:26:52;5.13;;;4.70;;
23088;SDS011;11713;48.506;8.966;2022-08-30T11:31:58;5.30;;;4.78;;
23088;SDS011;11713;48.506;8.966;2022-08-30T11:42:37;4.78;;;4.32;;
23088;SDS011;11713;48.506;8.966;2022-08-30T11:51:52;5.30;;;4.80;;
23088;SDS011;11713;48.506;8.966;2022-08-30T12:00:25;5.88;;;4.68;;
23088;SDS011;11713;48.506;8.966;2022-08-30T12:02:53;5.18;;;4.72;;
23088;SDS011;11713;48.506;8.966;2022-08-30T12:08:08;5.10;;;4.60;;
23088;SDS011;11713;48.506;8.966;2022-08-30T12:10:43;4.65;;;4.30;;
23088;SDS011;11713;48.506;8.966;2022-08-30T12:16:05;5.45;;;4.43;;
23088;SDS011;11713;48.506;8.966;2022-08-30T12:18:50;6.03;;;4.38;;
23088;SDS011;11713;48.506;8.966;2022-08-30T12:21:29;4.72;;;4.32;;
23088;SDS011;11713;48.506;8.966;2022-08-30T12:24:00;5.43;;;4.90;;
23088;SDS011;11713;48.506;8.966;2022-08-30T12:29:16;5.63;;;5.10;;
23088;SDS011;11713;48.506;8.966;2022-08-30T12:31:48;4.70;;;4.30;;
23088;SDS011;11713;48.506;8.966;2022-08-30T12:37:05;4.68;;;4.28;;
23088;SDS011;11713;48.506;8.966;2022-08-30T12:39:40;4.80;;;4.40;;
23088;SDS011;11713;48.506;8.966;2022-08-30T12:42:18;5.60;;;4.45;;
23088;SDS011;11713;48.506;8.966;2022-08-30T12:44:50;4.45;;;4.05;;
23088;SDS011;11713;48.506;8.966;2022-08-30T12:47:21;4.57;;;3.90;;
23088;SDS011;11713;48.506;8.966;2022-08-30T12:50:04;4.55;;;4.15;;
23088;SDS011;11713;48.506;8.966;2022-08-30T12:52:36;4.30;;;4.00;;
23088;SDS011;11713;48.506;8.966;2022-08-30T12:55:16;5.15;;;4.50;;
23088;SDS011;11713;48.506;8.966;2022-08-30T12:58:02;4.40;;;4.00;;
23088;SDS011;11713;48.506;8.966;2022-08-30T13:03:42;4.35;;;3.75;;
23088;SDS011;11713;48.506;8.966;2022-08-30T13:09:30;5.00;;;3.80;;
23088;SDS011;11713;48.506;8.966;2022-08-30T13:12:09;4.93;;;4.35;;
23088;SDS011;11713;48.506;8.966;2022-08-30T13:14:52;4.57;;;4.10;;
23088;SDS011;11713;48.506;8.966;2022-08-30T13:17:33;4.40;;;4.00;;
23088;SDS011;11713;48.506;8.966;2022-08-30T13:20:03;4.80;;;4.10;;
23088;SDS011;11713;48.506;8.966;2022-08-30T13:22:39;5.55;;;4.38;;
23088;SDS011;11713;48.506;8.966;2022-08-30T13:25:08;4.50;;;4.10;;
23088;SDS011;11713;48.506;8.966;2022-08-30T13:27:36;4.20;;;3.90;;
23088;SDS011;11713;48.506;8.966;2022-08-30T13:30:08;4.70;;;4.30;;
23088;SDS011;11713;48.506;8.966;2022-08-30T13:32:36;4.15;;;3.70;;
23088;SDS011;11713;48.506;8.966;2022-08-30T13:35:03;5.75;;;3.78;;
23088;SDS011;11713;48.506;8.966;2022-08-30T13:37:30;4.28;;;3.92;;
23088;SDS011;11713;48.506;8.966;2022-08-30T13:39:57;4.22;;;3.85;;
23088;SDS011;11713;48.506;8.966;2022-08-30T13:42:24;4.38;;;3.95;;
23088;SDS011;11713;48.506;8.966;2022-08-30T13:44:50;5.20;;;4.20;;
23088;SDS011;11713;48.506;8.966;2022-08-30T13:47:16;4.40;;;4.00;;
23088;SDS011;11713;48.506;8.966;2022-08-30T13:49:44;4.03;;;3.70;;
23088;SDS011;11713;48.506;8.966;2022-08-30T13:52:16;4.30;;;4.00;;
23088;SDS011;11713;48.506;8.966;2022-08-30T13:54:44;4.28;;;3.97;;
23088;SDS011;11713;48.506;8.966;2022-08-30T13:57:10;4.85;;;4.35;;
23088;SDS011;11713;48.506;8.966;2022-08-30T13:59:37;4.50;;;4.07;;
23088;SDS011;11713;48.506;8.966;2022-08-30T14:02:03;4.55;;;3.95;;
23088;SDS011;11713;48.506;8.966;2022-08-30T14:04:29;6.22;;;4.20;;
23088;SDS011;11713;48.506;8.966;2022-08-30T14:06:55;4.53;;;4.13;;
23088;SDS011;11713;48.506;8.966;2022-08-30T14:09:21;3.95;;;3.65;;
23088;SDS011;11713;48.506;8.966;2022-08-30T14:11:47;5.28;;;4.57;;
23088;SDS011;11713;48.506;8.966;2022-08-30T14:14:13;4.40;;;3.92;;
23088;SDS011;11713;48.506;8.966;2022-08-30T14:16:40;4.15;;;3.85;;
23088;SDS011;11713;48.506;8.966;2022-08-30T14:19:07;5.50;;;4.22;;
23088;SDS011;11713;48.506;8.966;2022-08-30T14:21:36;5.63;;;4.20;;
23088;SDS011;11713;48.506;8.966;2022-08-30T14:24:03;4.78;;;4.45;;
23088;SDS011;11713;48.506;8.966;2022-08-30T14:26:37;5.05;;;4.60;;
23088;SDS011;11713;48.506;8.966;2022-08-30T14:29:06;4.10;;;3.80;;
23088;SDS011;11713;48.506;8.966;2022-08-30T14:31:36;4.38;;;4.07;;
23088;SDS011;11713;48.506;8.966;2022-08-30T14:34:07;5.05;;;4.60;;
23088;SDS011;11713;48.506;8.966;2022-08-30T14:36:36;4.90;;;4.50;;
23088;SDS011;11713;48.506;8.966;2022-08-30T14:39:04;6.22;;;4.45;;
23088;SDS011;11713;48.506;8.966;2022-08-30T14:41:32;5.72;;;4.07;;
23088;SDS011;11713;48.506;8.966;2022-08-30T14:44:04;4.18;;;3.88;;
23088;SDS011;11713;48.506;8.966;2022-08-30T14:49:12;4.70;;;4.30;;
23088;SDS011;11713;48.506;8.966;2022-08-30T14:51:46;4.68;;;4.18;;
23088;SDS011;11713;48.506;8.966;2022-08-30T14:57:09;5.15;;;4.75;;
23088;SDS011;11713;48.506;8.966;2022-08-30T14:59:36;5.13;;;4.47;;
23088;SDS011;11713;48.506;8.966;2022-08-30T15:02:13;4.63;;;4.22;;
23088;SDS011;11713;48.506;8.966;2022-08-30T15:04:55;5.43;;;4.43;;
23088;SDS011;11713;48.506;8.966;2022-08-30T15:07:40;4.35;;;4.00;;
23088;SDS011;11713;48.506;8.966;2022-08-30T15:10:12;6.50;;;4.88;;
23088;SDS011;11713;48.506;8.966;2022-08-30T15:15:30;4.30;;;3.90;;
23088;SDS011;11713;48.506;8.966;2022-08-30T15:18:01;5.82;;;4.60;;
23088;SDS011;11713;48.506;8.966;2022-08-30T15:20:32;4.53;;;4.13;;
23088;SDS011;11713;48.506;8.966;2022-08-30T15:23:02;5.47;;;4.53;;
23088;SDS011;11713;48.506;8.966;2022-08-30T15:25:29;4.45;;;4.13;;
23088;SDS011;11713;48.506;8.966;2022-08-30T15:28:09;5.40;;;4.13;;
23088;SDS011;11713;48.506;8.966;2022-08-30T15:30:41;4.88;;;4.43;;
23088;SDS011;11713;48.506;8.966;2022-08-30T15:33:19;5.30;;;4.90;;
23088;SDS011;11713;48.506;8.966;2022-08-30T15:36:01;4.90;;;4.32;;
23088;SDS011;11713;48.506;8.966;2022-08-30T15:38:34;5.07;;;4.57;;
23088;SDS011;11713;48.506;8.966;2022-08-30T15:41:02;4.45;;;4.05;;
23088;SDS011;11713;48.506;8.966;2022-08-30T15:43:30;4.63;;;4.10;;
23088;SDS011;11713;48.506;8.966;2022-08-30T15:46:07;4.78;;;4.25;;
23088;SDS011;11713;48.506;8.966;2022-08-30T15:48:47;4.50;;;4.10;;
23088;SDS011;11713;48.506;8.966;2022-08-30T15:51:14;4.60;;;4.20;;
23088;SDS011;11713;48.506;8.966;2022-08-30T15:53:41;5.00;;;4.30;;
23088;SDS011;11713;48.506;8.966;2022-08-30T15:56:09;4.63;;;4.10;;
23088;SDS011;11713;48.506;8.966;2022-08-30T15:58:38;4.80;;;4.40;;
23088;SDS011;11713;48.506;8.966;2022-08-30T16:01:08;4.75;;;4.35;;
23088;SDS011;11713;48.506;8.966;2022-08-30T16:03:35;5.00;;;4.50;;
23088;SDS011;11713;48.506;8.966;2022-08-30T16:06:24;5.50;;;4.97;;
23088;SDS011;11713;48.506;8.966;2022-08-30T16:08:58;4.60;;;4.20;;
23088;SDS011;11713;48.506;8.966;2022-08-30T16:11:28;4.40;;;4.00;;
23088;SDS011;11713;48.506;8.966;2022-08-30T16:13:54;5.25;;;4.65;;
23088;SDS011;11713;48.506;8.966;2022-08-30T16:16:20;5.07;;;4.68;;
23088;SDS011;11713;48.506;8.966;2022-08-30T16:18:47;4.55;;;4.15;;
23088;SDS011;11713;48.506;8.966;2022-08-30T16:21:16;4.55;;;4.15;;
23088;SDS011;11713;48.506;8.966;2022-08-30T16:23:46;4.60;;;4.20;;
23088;SDS011;11713;48.506;8.966;2022-08-30T16:26:15;4.88;;;4.47;;